createdAt,value
2019-04-21T00:00:13.226Z,19.19
2019-04-21T00:01:12.652Z,19.19
2019-04-21T00:02:11.042Z,19.19
2019-04-21T00:03:16.532Z,19.19
2019-04-21T00:04:19.840Z,19.19
2019-04-21T00:05:26.051Z,19.19
2019-04-21T00:06:22.477Z,19.19
2019-04-21T00:07:19.388Z,19.12
2019-04-21T00:08:27.245Z,19.19
2019-04-21T00:09:27.816Z,19.12
2019-04-21T00:10:18.412Z,19.12
2019-04-21T00:11:15.267Z,19.12
2019-04-21T00:12:15.030Z,19.12
2019-04-21T00:13:07.812Z,19.12
2019-04-21T00:14:05.745Z,19.12
2019-04-21T00:15:02.227Z,19.12
2019-04-21T00:15:57.379Z,19.12
2019-04-21T00:16:52.901Z,19.12
2019-04-21T00:17:52.715Z,19.12
2019-04-21T00:19:07.118Z,19.12
2019-04-21T00:20:11.426Z,19.12
2019-04-21T00:21:09.638Z,19.12
2019-04-21T00:22:08.657Z,19.12
2019-04-21T00:23:15.302Z,19.12
2019-04-21T00:24:20.306Z,19.12
2019-04-21T00:25:25.220Z,19.12
2019-04-21T00:26:23.811Z,19.12
2019-04-21T00:27:22.960Z,19.12
2019-04-21T00:28:25.406Z,19.12
2019-04-21T00:29:27.559Z,19.12
2019-04-21T00:30:21.340Z,19.12
2019-04-21T00:31:17.696Z,19.12
2019-04-21T00:32:10.071Z,19.12
2019-04-21T00:33:05.324Z,19.12
2019-04-21T00:33:55.005Z,19.12
2019-04-21T00:35:00.408Z,19.12
2019-04-21T00:35:59.058Z,19.12
2019-04-21T00:36:59.706Z,19.12
2019-04-21T00:38:09.470Z,19.12
2019-04-21T00:39:18.713Z,19.12
2019-04-21T00:40:03.689Z,19.12
2019-04-21T00:41:08.870Z,19.12
2019-04-21T00:41:59.610Z,19.12
2019-04-21T00:43:00.902Z,19.12
2019-04-21T00:43:55.371Z,19.12
2019-04-21T00:44:56.602Z,19.12
2019-04-21T00:45:48.122Z,19.12
2019-04-21T00:46:53.172Z,19.12
2019-04-21T00:47:52.863Z,19.12
2019-04-21T00:48:53.575Z,19.12
2019-04-21T00:49:52.181Z,19.12
2019-04-21T00:51:03.431Z,19.12
2019-04-21T00:52:07.152Z,19.12
2019-04-21T00:53:00.447Z,19.12
2019-04-21T00:54:05.754Z,19.12
2019-04-21T00:55:10.137Z,19.12
2019-04-21T00:56:04.567Z,19.12
2019-04-21T00:57:05.729Z,19.12
2019-04-21T00:57:58.639Z,19.12
2019-04-21T00:58:53.638Z,19.12
2019-04-21T00:59:50.007Z,19.12
2019-04-21T01:00:54.148Z,19.06
2019-04-21T01:01:52.484Z,19.12
2019-04-21T01:02:51.175Z,19.12
2019-04-21T01:03:52.997Z,19.12
2019-04-21T01:04:49.551Z,19.12
2019-04-21T01:05:47.000Z,19.12
2019-04-21T01:06:42.877Z,19.06
2019-04-21T01:07:42.021Z,19.12
2019-04-21T01:08:39.966Z,19.12
2019-04-21T01:09:35.488Z,19.06
2019-04-21T01:10:28.694Z,19.06
2019-04-21T01:11:32.064Z,19.06
2019-04-21T01:12:35.434Z,19.06
2019-04-21T01:13:36.655Z,19.06
2019-04-21T01:14:35.914Z,19.06
2019-04-21T01:16:34.126Z,19.06
2019-04-21T01:17:29.058Z,19.06
2019-04-21T01:18:24.577Z,19.06
2019-04-21T01:19:23.797Z,19.06
2019-04-21T01:20:13.322Z,19.06
2019-04-21T01:20:58.784Z,19.06
2019-04-21T01:21:55.493Z,19.06
2019-04-21T01:22:53.628Z,19.06
2019-04-21T01:23:50.765Z,19.06
2019-04-21T01:24:59.265Z,19.06
2019-04-21T01:26:00.795Z,19.06
2019-04-21T01:26:59.587Z,19.06
2019-04-21T01:27:59.075Z,19.06
2019-04-21T01:29:00.002Z,19.06
2019-04-21T01:30:00.057Z,19.06
2019-04-21T01:30:56.949Z,19.06
2019-04-21T01:31:56.959Z,19.06
2019-04-21T01:33:00.119Z,19.06
2019-04-21T01:33:59.210Z,19.06
2019-04-21T01:34:56.078Z,19.06
2019-04-21T01:35:48.263Z,19.06
2019-04-21T01:36:47.464Z,19.06
2019-04-21T01:37:49.482Z,19.06
2019-04-21T01:38:48.277Z,19.06
2019-04-21T01:39:51.556Z,19.06
2019-04-21T01:40:49.389Z,19.06
2019-04-21T01:41:49.561Z,19.06
2019-04-21T01:42:43.571Z,19.06
2019-04-21T01:43:42.787Z,19.06
2019-04-21T01:44:43.059Z,19.06
2019-04-21T01:45:37.676Z,19.06
2019-04-21T01:46:29.385Z,19.06
2019-04-21T01:47:32.776Z,19.06
2019-04-21T01:48:28.995Z,19.06
2019-04-21T01:49:21.995Z,19.06
2019-04-21T01:50:30.027Z,19.06
2019-04-21T01:51:23.545Z,19.06
2019-04-21T01:52:38.650Z,19.06
2019-04-21T01:53:59.576Z,19.06
2019-04-21T01:55:06.046Z,19.06
2019-04-21T01:56:40.147Z,19.06
2019-04-21T01:57:51.236Z,19.00
2019-04-21T01:58:43.114Z,19.06
2019-04-21T01:59:43.888Z,19.06
2019-04-21T02:00:56.773Z,19.06
2019-04-21T02:02:02.412Z,19.00
2019-04-21T02:02:59.279Z,19.00
2019-04-21T02:03:55.880Z,19.00
2019-04-21T02:04:55.799Z,19.00
2019-04-21T02:05:58.652Z,19.00
2019-04-21T02:06:50.426Z,19.00
2019-04-21T02:07:50.839Z,19.00
2019-04-21T02:08:41.553Z,19.00
2019-04-21T02:09:43.294Z,19.00
2019-04-21T02:10:47.963Z,19.00
2019-04-21T02:11:52.046Z,19.00
2019-04-21T02:12:45.928Z,19.06
2019-04-21T02:13:50.191Z,19.00
2019-04-21T02:14:45.869Z,19.00
2019-04-21T02:15:42.012Z,19.00
2019-04-21T02:16:34.548Z,19.00
2019-04-21T02:17:37.862Z,19.00
2019-04-21T02:18:33.325Z,19.00
2019-04-21T02:19:27.873Z,19.00
2019-04-21T02:20:24.510Z,19.00
2019-04-21T02:21:22.090Z,19.00
2019-04-21T02:22:35.395Z,19.00
2019-04-21T02:23:35.072Z,19.00
2019-04-21T02:24:33.267Z,19.00
2019-04-21T02:25:29.745Z,19.00
2019-04-21T02:26:22.930Z,19.00
2019-04-21T02:27:20.200Z,19.00
2019-04-21T02:28:24.367Z,19.00
2019-04-21T02:29:20.647Z,19.00
2019-04-21T02:30:27.496Z,19.00
2019-04-21T02:33:32.283Z,19.00
2019-04-21T02:34:27.409Z,19.00
2019-04-21T02:35:30.754Z,19.00
2019-04-21T02:36:37.319Z,19.00
2019-04-21T02:41:05.860Z,19.00
2019-04-21T02:42:15.083Z,19.00
2019-04-21T02:45:00.005Z,19.00
2019-04-21T02:46:10.501Z,19.00
2019-04-21T02:46:54.670Z,19.00
2019-04-21T02:48:04.048Z,19.00
2019-04-21T02:49:11.180Z,19.00
2019-04-21T02:51:58.741Z,19.00
2019-04-21T02:54:28.797Z,19.00
2019-04-21T02:55:02.390Z,19.00
2019-04-21T02:55:44.763Z,19.00
2019-04-21T03:00:15.996Z,18.94
2019-04-21T03:01:46.323Z,19.00
2019-04-21T03:03:36.480Z,18.94
2019-04-21T03:04:46.682Z,18.94
2019-04-21T03:05:53.030Z,18.94
2019-04-21T03:07:07.334Z,18.94
2019-04-21T03:09:09.224Z,18.94
2019-04-21T03:10:53.676Z,18.94
2019-04-21T03:11:56.031Z,18.94
2019-04-21T03:12:44.330Z,18.94
2019-04-21T03:13:54.834Z,18.94
2019-04-21T03:14:56.520Z,18.94
2019-04-21T03:15:49.071Z,18.94
2019-04-21T03:16:31.253Z,18.94
2019-04-21T03:17:43.816Z,18.94
2019-04-21T03:18:40.003Z,18.94
2019-04-21T03:19:48.243Z,18.94
2019-04-21T03:21:38.666Z,18.94
2019-04-21T03:23:36.620Z,18.94
2019-04-21T03:24:49.269Z,18.94
2019-04-21T03:25:44.846Z,18.94
2019-04-21T03:26:39.581Z,18.94
2019-04-21T03:27:42.466Z,18.94
2019-04-21T03:29:29.451Z,18.94
2019-04-21T03:31:36.695Z,18.94
2019-04-21T03:32:50.482Z,18.94
2019-04-21T03:36:08.174Z,18.94
2019-04-21T03:38:16.606Z,18.94
2019-04-21T03:39:01.349Z,18.94
2019-04-21T03:40:06.811Z,18.94
2019-04-21T03:41:05.129Z,18.94
2019-04-21T03:42:14.885Z,18.94
2019-04-21T03:43:04.411Z,18.94
2019-04-21T03:43:58.937Z,18.94
2019-04-21T03:46:02.114Z,18.94
2019-04-21T03:46:56.083Z,18.94
2019-04-21T03:47:53.427Z,18.94
2019-04-21T03:48:51.766Z,18.94
2019-04-21T03:49:54.527Z,18.94
2019-04-21T03:50:47.313Z,18.94
2019-04-21T03:54:57.693Z,18.94
2019-04-21T03:57:57.115Z,18.94
2019-04-21T03:59:36.688Z,18.94
2019-04-21T04:01:08.088Z,18.94
2019-04-21T04:02:36.545Z,18.94
2019-04-21T04:04:56.192Z,18.94
2019-04-21T04:06:08.306Z,18.94
2019-04-21T04:08:44.446Z,18.94
2019-04-21T04:10:52.025Z,18.94
2019-04-21T04:11:45.680Z,18.94
2019-04-21T04:12:26.385Z,18.94
2019-04-21T04:13:26.524Z,18.87
2019-04-21T04:14:26.778Z,18.94
2019-04-21T04:16:19.634Z,18.87
2019-04-21T04:17:18.648Z,18.87
2019-04-21T04:18:31.826Z,18.87
2019-04-21T04:19:22.855Z,18.87
2019-04-21T04:20:22.284Z,18.87
2019-04-21T04:21:24.354Z,18.87
2019-04-21T04:22:14.316Z,18.87
2019-04-21T04:23:18.426Z,18.87
2019-04-21T04:24:16.856Z,18.87
2019-04-21T04:26:07.585Z,18.87
2019-04-21T04:27:07.653Z,18.87
2019-04-21T04:28:14.118Z,18.87
2019-04-21T04:30:10.702Z,18.87
2019-04-21T04:31:50.926Z,18.87
2019-04-21T04:32:51.907Z,18.87
2019-04-21T04:34:10.030Z,18.87
2019-04-21T04:34:58.864Z,18.87
2019-04-21T04:36:01.395Z,18.87
2019-04-21T04:38:08.632Z,18.87
2019-04-21T04:39:06.816Z,18.87
2019-04-21T04:40:10.738Z,18.87
2019-04-21T04:41:10.965Z,18.87
2019-04-21T04:42:27.520Z,18.87
2019-04-21T04:43:19.716Z,18.87
2019-04-21T04:44:30.378Z,18.87
2019-04-21T04:46:22.389Z,18.87
2019-04-21T04:47:16.673Z,18.87
2019-04-21T04:48:11.721Z,18.87
2019-04-21T04:49:12.776Z,18.87
2019-04-21T04:50:06.022Z,18.87
2019-04-21T04:51:01.944Z,18.87
2019-04-21T04:52:24.669Z,18.87
2019-04-21T04:52:51.283Z,18.87
2019-04-21T04:53:52.959Z,18.87
2019-04-21T04:55:58.885Z,18.87
2019-04-21T04:57:14.487Z,18.87
2019-04-21T04:57:59.086Z,18.87
2019-04-21T05:00:03.467Z,18.87
2019-04-21T05:00:54.529Z,18.87
2019-04-21T05:01:59.974Z,18.87
2019-04-21T05:03:52.440Z,18.87
2019-04-21T05:05:05.893Z,18.87
2019-04-21T05:05:49.204Z,18.87
2019-04-21T05:06:46.149Z,18.81
2019-04-21T05:07:49.970Z,18.81
2019-04-21T05:08:52.973Z,18.87
2019-04-21T05:09:39.593Z,18.87
2019-04-21T05:10:47.727Z,18.87
2019-04-21T05:12:29.483Z,18.81
2019-04-21T05:13:35.158Z,18.81
2019-04-21T05:15:23.959Z,18.81
2019-04-21T05:17:32.055Z,18.81
2019-04-21T05:18:24.413Z,18.81
2019-04-21T05:19:36.900Z,18.81
2019-04-21T05:21:34.308Z,18.81
2019-04-21T05:22:17.222Z,18.81
2019-04-21T05:23:06.768Z,18.81
2019-04-21T05:24:04.722Z,18.81
2019-04-21T05:24:58.426Z,18.81
2019-04-21T05:25:54.426Z,18.81
2019-04-21T05:26:58.384Z,18.81
2019-04-21T05:27:55.362Z,18.81
2019-04-21T05:28:48.646Z,18.81
2019-04-21T05:29:58.662Z,18.81
2019-04-21T05:31:35.053Z,18.81
2019-04-21T05:32:45.804Z,18.81
2019-04-21T05:33:53.012Z,18.81
2019-04-21T05:35:01.594Z,18.81
2019-04-21T05:36:15.787Z,18.81
2019-04-21T05:37:20.189Z,18.81
2019-04-21T05:38:34.628Z,18.81
2019-04-21T05:39:52.258Z,18.81
2019-04-21T05:40:48.273Z,18.81
2019-04-21T05:41:42.949Z,18.81
2019-04-21T05:42:53.276Z,18.81
2019-04-21T05:43:51.439Z,18.81
2019-04-21T05:45:02.592Z,18.81
2019-04-21T05:45:52.038Z,18.81
2019-04-21T05:47:05.533Z,18.81
2019-04-21T05:48:19.460Z,18.81
2019-04-21T05:49:09.361Z,18.81
2019-04-21T05:50:14.706Z,18.81
2019-04-21T05:51:07.085Z,18.81
2019-04-21T05:52:05.434Z,18.81
2019-04-21T05:53:19.282Z,18.81
2019-04-21T05:54:14.740Z,18.81
2019-04-21T05:55:09.200Z,18.81
2019-04-21T05:56:03.587Z,18.81
2019-04-21T05:57:03.758Z,18.81
2019-04-21T05:58:05.689Z,18.81
2019-04-21T05:58:57.653Z,18.81
2019-04-21T05:59:56.050Z,18.81
2019-04-21T06:02:07.267Z,18.81
2019-04-21T06:02:57.724Z,18.81
2019-04-21T06:04:01.712Z,18.81
2019-04-21T06:06:03.383Z,18.81
2019-04-21T06:07:00.593Z,18.81
2019-04-21T06:07:50.033Z,18.75
2019-04-21T06:08:47.814Z,18.81
2019-04-21T06:09:52.439Z,18.81
2019-04-21T06:10:47.500Z,18.81
2019-04-21T06:11:45.893Z,18.81
2019-04-21T06:12:40.651Z,18.75
2019-04-21T06:13:51.565Z,18.75
2019-04-21T06:14:43.963Z,18.75
2019-04-21T06:15:47.195Z,18.75
2019-04-21T06:16:43.155Z,18.75
2019-04-21T06:17:36.903Z,18.75
2019-04-21T06:18:46.527Z,18.75
2019-04-21T06:19:36.774Z,18.75
2019-04-21T06:20:34.952Z,18.75
2019-04-21T06:21:28.045Z,18.75
2019-04-21T06:22:25.952Z,18.75
2019-04-21T06:23:27.332Z,18.75
2019-04-21T06:24:27.025Z,18.75
2019-04-21T06:25:50.302Z,18.75
2019-04-21T06:27:28.003Z,18.75
2019-04-21T06:28:27.088Z,18.75
2019-04-21T06:29:18.459Z,18.75
2019-04-21T06:30:13.629Z,18.75
2019-04-21T06:31:20.221Z,18.75
2019-04-21T06:32:37.433Z,18.75
2019-04-21T06:33:11.971Z,18.75
2019-04-21T06:34:11.326Z,18.75
2019-04-21T06:35:45.957Z,18.75
2019-04-21T06:36:39.585Z,18.75
2019-04-21T06:39:00.526Z,18.75
2019-04-21T06:40:03.313Z,18.75
2019-04-21T06:40:48.401Z,18.75
2019-04-21T06:41:39.809Z,18.75
2019-04-21T06:42:50.244Z,18.75
2019-04-21T06:43:48.542Z,18.75
2019-04-21T06:44:48.355Z,18.75
2019-04-21T06:45:45.887Z,18.75
2019-04-21T06:47:51.397Z,18.75
2019-04-21T06:48:37.260Z,18.75
2019-04-21T06:49:35.414Z,18.75
2019-04-21T06:50:37.704Z,18.75
2019-04-21T06:52:52.247Z,18.69
2019-04-21T06:53:33.439Z,18.69
2019-04-21T06:54:30.524Z,18.69
2019-04-21T06:55:26.794Z,18.69
2019-04-21T06:56:24.801Z,18.69
2019-04-21T06:57:21.770Z,18.69
2019-04-21T06:58:20.391Z,18.69
2019-04-21T06:59:15.118Z,18.69
2019-04-21T07:00:12.046Z,18.69
2019-04-21T07:01:15.754Z,18.69
2019-04-21T07:02:31.807Z,18.69
2019-04-21T07:03:19.320Z,18.69
2019-04-21T07:04:19.715Z,18.69
2019-04-21T07:05:09.188Z,18.69
2019-04-21T07:06:08.071Z,18.69
2019-04-21T07:07:06.414Z,18.69
2019-04-21T07:08:21.993Z,18.69
2019-04-21T07:09:20.429Z,18.69
2019-04-21T07:10:04.276Z,18.69
2019-04-21T07:10:59.155Z,18.69
2019-04-21T07:11:56.766Z,18.69
2019-04-21T07:12:51.105Z,18.69
2019-04-21T07:14:16.056Z,18.69
2019-04-21T07:14:52.774Z,18.69
2019-04-21T07:15:53.303Z,18.69
2019-04-21T07:17:05.279Z,18.69
2019-04-21T07:17:46.986Z,18.69
2019-04-21T07:18:51.382Z,18.69
2019-04-21T07:19:50.026Z,18.69
2019-04-21T07:20:49.131Z,18.69
2019-04-21T07:21:45.810Z,18.69
2019-04-21T07:22:41.630Z,18.69
2019-04-21T07:23:46.042Z,18.69
2019-04-21T07:24:36.811Z,18.69
2019-04-21T07:25:38.791Z,18.69
2019-04-21T07:26:37.872Z,18.69
2019-04-21T07:27:35.432Z,18.69
2019-04-21T07:28:35.796Z,18.69
2019-04-21T07:29:34.686Z,18.69
2019-04-21T07:30:31.195Z,18.69
2019-04-21T07:31:31.697Z,18.69
2019-04-21T07:32:26.765Z,18.69
2019-04-21T07:34:28.521Z,18.69
2019-04-21T07:35:20.795Z,18.69
2019-04-21T07:36:30.909Z,18.69
2019-04-21T07:37:20.767Z,18.69
2019-04-21T07:38:16.571Z,18.69
2019-04-21T07:39:10.410Z,18.69
2019-04-21T07:40:12.166Z,18.69
2019-04-21T07:41:08.267Z,18.69
2019-04-21T07:42:04.631Z,18.69
2019-04-21T07:43:03.889Z,18.69
2019-04-21T07:44:00.235Z,18.69
2019-04-21T07:44:59.322Z,18.62
2019-04-21T07:45:58.595Z,18.69
2019-04-21T07:46:58.547Z,18.62
2019-04-21T07:48:01.726Z,18.69
2019-04-21T07:49:15.796Z,18.62
2019-04-21T07:50:14.619Z,18.69
2019-04-21T07:51:44.081Z,18.69
2019-04-21T07:52:53.272Z,18.69
2019-04-21T07:53:48.130Z,18.69
2019-04-21T07:54:53.172Z,18.62
2019-04-21T07:56:20.316Z,18.69
2019-04-21T07:57:31.643Z,18.69
2019-04-21T07:58:26.201Z,18.69
2019-04-21T07:59:37.118Z,18.69
2019-04-21T08:01:33.708Z,18.62
2019-04-21T08:02:31.330Z,18.62
2019-04-21T08:03:30.009Z,18.62
2019-04-21T08:04:43.946Z,18.62
2019-04-21T08:05:37.589Z,18.69
2019-04-21T08:06:22.349Z,18.62
2019-04-21T08:07:24.521Z,18.62
2019-04-21T08:08:19.083Z,18.69
2019-04-21T08:09:12.529Z,18.62
2019-04-21T08:10:13.959Z,18.62
2019-04-21T08:11:09.130Z,18.62
2019-04-21T08:12:09.550Z,18.62
2019-04-21T08:13:17.337Z,18.62
2019-04-21T08:14:08.177Z,18.62
2019-04-21T08:15:07.704Z,18.62
2019-04-21T08:17:02.849Z,18.62
2019-04-21T08:18:02.641Z,18.62
2019-04-21T08:19:05.611Z,18.62
2019-04-21T08:19:53.878Z,18.62
2019-04-21T08:20:53.409Z,18.62
2019-04-21T08:22:09.535Z,18.62
2019-04-21T08:22:58.780Z,18.62
2019-04-21T08:23:54.159Z,18.62
2019-04-21T08:24:51.830Z,18.62
2019-04-21T08:26:02.934Z,18.62
2019-04-21T08:26:51.616Z,18.62
2019-04-21T08:28:46.915Z,18.62
2019-04-21T08:29:46.252Z,18.62
2019-04-21T08:30:43.078Z,18.62
2019-04-21T08:31:49.951Z,18.62
2019-04-21T08:34:51.196Z,18.62
2019-04-21T08:36:00.327Z,18.62
2019-04-21T08:36:35.538Z,18.62
2019-04-21T08:37:32.837Z,18.62
2019-04-21T08:38:37.766Z,18.62
2019-04-21T08:39:40.070Z,18.62
2019-04-21T08:40:33.106Z,18.62
2019-04-21T08:41:27.765Z,18.62
2019-04-21T08:42:28.392Z,18.62
2019-04-21T08:43:40.026Z,18.62
2019-04-21T08:44:28.513Z,18.62
2019-04-21T08:45:29.408Z,18.62
2019-04-21T08:47:19.098Z,18.62
2019-04-21T08:48:18.167Z,18.62
2019-04-21T08:49:18.440Z,18.62
2019-04-21T08:50:15.210Z,18.62
2019-04-21T08:52:26.062Z,18.62
2019-04-21T08:53:07.944Z,18.62
2019-04-21T08:54:09.281Z,18.62
2019-04-21T08:55:22.554Z,18.62
2019-04-21T08:56:27.676Z,18.62
2019-04-21T08:57:42.052Z,18.62
2019-04-21T08:58:59.071Z,18.62
2019-04-21T09:00:22.938Z,18.62
2019-04-21T09:02:35.270Z,18.62
2019-04-21T09:03:51.928Z,18.62
2019-04-21T09:04:45.882Z,18.62
2019-04-21T09:05:51.178Z,18.62
2019-04-21T09:07:06.456Z,18.62
2019-04-21T09:07:49.321Z,18.62
2019-04-21T09:08:45.750Z,18.62
2019-04-21T09:09:44.143Z,18.62
2019-04-21T09:10:39.191Z,18.62
2019-04-21T09:11:37.537Z,18.62
2019-04-21T09:12:39.158Z,18.62
2019-04-21T09:13:37.163Z,18.62
2019-04-21T09:14:30.921Z,18.62
2019-04-21T09:15:31.079Z,18.62
2019-04-21T09:16:24.925Z,18.62
2019-04-21T09:17:25.113Z,18.62
2019-04-21T09:18:23.897Z,18.62
2019-04-21T09:19:39.806Z,18.62
2019-04-21T09:20:24.919Z,18.62
2019-04-21T09:21:25.546Z,18.62
2019-04-21T09:22:16.804Z,18.62
2019-04-21T09:23:19.875Z,18.62
2019-04-21T09:24:16.122Z,18.62
2019-04-21T09:25:21.117Z,18.62
2019-04-21T09:26:18.602Z,18.62
2019-04-21T09:27:08.509Z,18.62
2019-04-21T09:28:12.208Z,18.62
2019-04-21T09:29:04.248Z,18.62
2019-04-21T09:29:57.131Z,18.62
2019-04-21T09:30:56.903Z,18.62
2019-04-21T09:31:48.506Z,18.62
2019-04-21T09:32:51.306Z,18.62
2019-04-21T09:33:48.795Z,18.62
2019-04-21T09:34:45.327Z,18.62
2019-04-21T09:35:50.137Z,18.62
2019-04-21T09:36:46.691Z,18.62
2019-04-21T09:37:47.832Z,18.62
2019-04-21T09:38:41.836Z,18.62
2019-04-21T09:39:43.330Z,18.62
2019-04-21T09:40:40.347Z,18.62
2019-04-21T09:41:34.884Z,18.62
2019-04-21T09:42:38.636Z,18.62
2019-04-21T09:43:36.249Z,18.62
2019-04-21T09:44:33.291Z,18.62
2019-04-21T09:45:26.747Z,18.62
2019-04-21T09:46:23.454Z,18.62
2019-04-21T09:47:23.441Z,18.62
2019-04-21T09:48:21.055Z,18.62
2019-04-21T09:49:22.496Z,18.62
2019-04-21T09:50:15.713Z,18.62
2019-04-21T09:51:13.083Z,18.62
2019-04-21T09:52:16.111Z,18.62
2019-04-21T09:53:16.778Z,18.62
2019-04-21T09:54:13.612Z,18.62
2019-04-21T09:55:13.367Z,18.62
2019-04-21T09:56:07.915Z,18.62
2019-04-21T09:57:07.486Z,18.62
2019-04-21T09:58:12.743Z,18.62
2019-04-21T09:59:11.398Z,18.62
2019-04-21T10:00:04.912Z,18.62
2019-04-21T10:01:05.183Z,18.62
2019-04-21T10:02:06.545Z,18.62
2019-04-21T10:03:00.916Z,18.62
2019-04-21T10:03:56.650Z,18.62
2019-04-21T10:04:50.634Z,18.62
2019-04-21T10:05:47.583Z,18.62
2019-04-21T10:06:45.317Z,18.62
2019-04-21T10:07:44.077Z,18.62
2019-04-21T10:08:40.560Z,18.62
2019-04-21T10:09:37.689Z,18.62
2019-04-21T10:10:34.496Z,18.62
2019-04-21T10:11:31.208Z,18.62
2019-04-21T10:12:28.724Z,18.62
2019-04-21T10:13:25.527Z,18.62
2019-04-21T10:14:22.260Z,18.62
2019-04-21T10:15:21.984Z,18.62
2019-04-21T10:16:36.965Z,18.62
2019-04-21T10:18:02.703Z,18.62
2019-04-21T10:18:59.555Z,18.62
2019-04-21T10:19:56.286Z,18.62
2019-04-21T10:20:52.991Z,18.62
2019-04-21T10:21:50.129Z,18.62
2019-04-21T10:22:46.912Z,18.62
2019-04-21T10:23:43.836Z,18.62
2019-04-21T10:24:40.600Z,18.62
2019-04-21T10:25:37.248Z,18.62
2019-04-21T10:26:33.856Z,18.62
2019-04-21T10:27:31.514Z,18.62
2019-04-21T10:28:28.805Z,18.62
2019-04-21T10:29:29.352Z,18.62
2019-04-21T10:30:24.631Z,18.62
2019-04-21T10:31:22.698Z,18.62
2019-04-21T10:32:23.170Z,18.62
2019-04-21T10:33:18.545Z,18.62
2019-04-21T10:34:15.333Z,18.62
2019-04-21T10:35:12.897Z,18.62
2019-04-21T10:36:10.950Z,18.62
2019-04-21T10:37:09.007Z,18.62
2019-04-21T10:38:17.988Z,18.62
2019-04-21T10:39:04.424Z,18.62
2019-04-21T10:40:01.117Z,18.62
2019-04-21T10:40:59.183Z,18.62
2019-04-21T10:41:57.200Z,18.62
2019-04-21T10:42:54.179Z,18.62
2019-04-21T10:43:51.390Z,18.62
2019-04-21T10:44:49.274Z,18.62
2019-04-21T10:45:46.529Z,18.69
2019-04-21T10:46:45.702Z,18.62
2019-04-21T10:47:43.057Z,18.62
2019-04-21T10:48:40.977Z,18.62
2019-04-21T10:49:37.809Z,18.69
2019-04-21T10:50:34.774Z,18.69
2019-04-21T10:51:32.805Z,18.69
2019-04-21T10:52:49.127Z,18.69
2019-04-21T10:53:50.844Z,18.69
2019-04-21T10:55:08.430Z,18.62
2019-04-21T10:55:57.994Z,18.69
2019-04-21T10:56:45.323Z,18.69
2019-04-21T10:58:00.830Z,18.62
2019-04-21T10:58:58.367Z,18.69
2019-04-21T10:59:56.445Z,18.69
2019-04-21T11:01:13.840Z,18.69
2019-04-21T11:02:19.025Z,18.62
2019-04-21T11:03:35.266Z,18.69
2019-04-21T11:04:36.438Z,18.69
2019-04-21T11:05:30.692Z,18.69
2019-04-21T11:06:28.795Z,18.69
2019-04-21T11:08:12.192Z,18.69
2019-04-21T11:09:04.838Z,18.69
2019-04-21T11:10:00.373Z,18.69
2019-04-21T11:10:58.151Z,18.69
2019-04-21T11:11:55.746Z,18.69
2019-04-21T11:12:52.704Z,18.69
2019-04-21T11:13:50.533Z,18.69
2019-04-21T11:14:47.429Z,18.69
2019-04-21T11:15:45.364Z,18.69
2019-04-21T11:16:43.349Z,18.69
2019-04-21T11:17:43.245Z,18.69
2019-04-21T11:18:39.876Z,18.69
2019-04-21T11:19:36.946Z,18.69
2019-04-21T11:20:35.053Z,18.69
2019-04-21T11:21:31.943Z,18.69
2019-04-21T11:22:28.637Z,18.69
2019-04-21T11:23:25.245Z,18.69
2019-04-21T11:24:23.004Z,18.69
2019-04-21T11:25:20.109Z,18.69
2019-04-21T11:26:17.873Z,18.69
2019-04-21T11:27:14.971Z,18.69
2019-04-21T11:28:13.252Z,18.69
2019-04-21T11:29:10.758Z,18.69
2019-04-21T11:30:07.635Z,18.69
2019-04-21T11:31:04.831Z,18.69
2019-04-21T11:32:02.939Z,18.69
2019-04-21T11:33:01.181Z,18.69
2019-04-21T11:33:58.092Z,18.69
2019-04-21T11:34:54.924Z,18.69
2019-04-21T11:35:51.612Z,18.69
2019-04-21T11:36:48.331Z,18.69
2019-04-21T11:37:46.145Z,18.69
2019-04-21T11:39:05.366Z,18.69
2019-04-21T11:39:51.995Z,18.69
2019-04-21T11:40:45.540Z,18.69
2019-04-21T11:41:43.517Z,18.69
2019-04-21T11:42:41.762Z,18.69
2019-04-21T11:43:39.130Z,18.69
2019-04-21T11:44:37.229Z,18.69
2019-04-21T11:45:34.738Z,18.69
2019-04-21T11:46:31.553Z,18.69
2019-04-21T11:47:32.532Z,18.69
2019-04-21T11:48:30.404Z,18.69
2019-04-21T11:49:30.313Z,18.69
2019-04-21T11:50:25.825Z,18.69
2019-04-21T11:51:22.818Z,18.69
2019-04-21T11:52:20.724Z,18.69
2019-04-21T11:53:17.464Z,18.69
2019-04-21T11:54:15.075Z,18.69
2019-04-21T11:55:12.884Z,18.69
2019-04-21T11:56:10.392Z,18.69
2019-04-21T11:57:14.112Z,18.69
2019-04-21T11:58:05.683Z,18.69
2019-04-21T11:59:03.754Z,18.69
2019-04-21T12:00:01.680Z,18.69
2019-04-21T12:01:00.139Z,18.69
2019-04-21T12:01:57.317Z,18.69
2019-04-21T12:02:55.362Z,18.69
2019-04-21T12:03:53.671Z,18.69
2019-04-21T12:04:51.589Z,18.69
2019-04-21T12:05:48.380Z,18.69
2019-04-21T12:06:47.644Z,18.69
2019-04-21T12:07:43.605Z,18.69
2019-04-21T12:08:44.334Z,18.69
2019-04-21T12:09:39.583Z,18.69
2019-04-21T12:10:37.563Z,18.69
2019-04-21T12:11:35.589Z,18.69
2019-04-21T12:12:32.965Z,18.69
2019-04-21T12:13:30.014Z,18.69
2019-04-21T12:14:27.902Z,18.69
2019-04-21T12:15:25.076Z,18.69
2019-04-21T12:16:23.257Z,18.69
2019-04-21T12:17:20.411Z,18.69
2019-04-21T12:18:17.844Z,18.69
2019-04-21T12:19:14.662Z,18.69
2019-04-21T12:20:12.439Z,18.69
2019-04-21T12:21:09.540Z,18.69
2019-04-21T12:22:14.093Z,18.69
2019-04-21T12:23:04.798Z,18.69
2019-04-21T12:24:02.633Z,18.69
2019-04-21T12:25:00.763Z,18.69
2019-04-21T12:25:58.995Z,18.69
2019-04-21T12:26:56.024Z,18.69
2019-04-21T12:27:54.038Z,18.69
2019-04-21T12:28:51.966Z,18.69
2019-04-21T12:29:49.462Z,18.69
2019-04-21T12:30:47.935Z,18.69
2019-04-21T12:31:59.419Z,18.75
2019-04-21T12:33:12.069Z,18.69
2019-04-21T12:34:10.156Z,18.75
2019-04-21T12:35:08.205Z,18.75
2019-04-21T12:36:06.083Z,18.69
2019-04-21T12:37:02.941Z,18.69
2019-04-21T12:38:00.607Z,18.75
2019-04-21T12:39:00.053Z,18.69
2019-04-21T12:39:56.839Z,18.69
2019-04-21T12:40:54.803Z,18.75
2019-04-21T12:41:51.604Z,18.75
2019-04-21T12:42:48.427Z,18.75
2019-04-21T12:43:46.511Z,18.75
2019-04-21T12:44:43.467Z,18.69
2019-04-21T12:45:40.240Z,18.75
2019-04-21T12:46:38.065Z,18.75
2019-04-21T12:47:34.956Z,18.75
2019-04-21T12:48:31.813Z,18.69
2019-04-21T12:49:29.654Z,18.69
2019-04-21T12:50:27.756Z,18.75
2019-04-21T12:51:25.865Z,18.75
2019-04-21T12:52:23.911Z,18.75
2019-04-21T12:53:21.446Z,18.75
2019-04-21T12:54:19.542Z,18.75
2019-04-21T12:55:17.544Z,18.75
2019-04-21T12:56:15.689Z,18.75
2019-04-21T12:57:13.735Z,18.75
2019-04-21T12:58:11.056Z,18.75
2019-04-21T12:59:08.073Z,18.75
2019-04-21T13:00:06.921Z,18.75
2019-04-21T13:01:04.950Z,18.75
2019-04-21T13:02:03.191Z,18.75
2019-04-21T13:03:00.053Z,18.75
2019-04-21T13:03:57.809Z,18.75
2019-04-21T13:04:55.785Z,18.75
2019-04-21T13:05:53.768Z,18.75
2019-04-21T13:06:51.768Z,18.75
2019-04-21T13:07:49.198Z,18.75
2019-04-21T13:08:55.630Z,18.75
2019-04-21T13:09:44.556Z,18.75
2019-04-21T13:10:42.287Z,18.75
2019-04-21T13:11:39.410Z,18.75
2019-04-21T13:12:36.092Z,18.75
2019-04-21T13:13:32.717Z,18.75
2019-04-21T13:14:29.657Z,18.75
2019-04-21T13:15:27.338Z,18.75
